Time;durP1;ratioP1;P1;durP2;ratioP2;P2;SDS_P1;SDS_P2;PMS_P1;PMS_P2;Temp;Humidity;BMP_temperature;BMP_pressure;BME280_temperature;BME280_humidity;BME280_pressure;Samples;Min_cycle;Max_cycle;Signal;HPM_P1;HPM_P2
2022/07/29 00:01:18;;;;;;;6.50;2.33;;;;;;;19.75;75.45;100492.41;8343387;28;20025;-49
2022/07/29 00:05:18;;;;;;;5.90;2.05;;;;;;;19.82;74.58;100481.50;8354982;28;20098;-49
2022/07/29 00:09:19;;;;;;;6.53;1.90;;;;;;;19.91;72.96;100477.56;8356941;28;20313;-51
2022/07/29 00:13:19;;;;;;;6.75;1.70;;;;;;;19.62;76.28;100480.50;8356403;28;20091;-49
2022/07/29 00:17:19;;;;;;;4.55;1.20;;;;;;;19.52;74.97;100478.13;8340025;28;20057;-53
2022/07/29 00:21:20;;;;;;;5.85;1.55;;;;;;;19.96;71.17;100462.16;8322031;28;20037;-50
2022/07/29 00:25:20;;;;;;;5.90;1.33;;;;;;;20.04;71.03;100444.69;8349178;28;20470;-53
2022/07/29 00:29:21;;;;;;;1.75;1.30;;;;;;;20.13;70.65;100447.06;8350173;28;20330;-53
2022/07/29 00:33:23;;;;;;;5.30;1.50;;;;;;;19.86;72.89;100441.63;8339179;28;20064;-50
2022/07/29 00:37:24;;;;;;;7.35;1.60;;;;;;;19.79;73.74;100443.50;8326359;28;20401;-51
2022/07/29 00:41:24;;;;;;;4.45;1.83;;;;;;;19.90;71.91;100429.19;8341343;28;20042;-49
2022/07/29 00:45:24;;;;;;;4.27;1.83;;;;;;;19.80;72.25;100425.97;8324665;28;20044;-50
2022/07/29 00:49:25;;;;;;;5.30;1.70;;;;;;;19.57;75.20;100425.41;8326626;28;20275;-51
2022/07/29 00:53:26;;;;;;;4.43;1.23;;;;;;;19.62;73.59;100425.63;8338680;28;20337;-50
2022/07/29 00:57:26;;;;;;;5.32;1.60;;;;;;;19.86;72.12;100422.41;8361756;28;20036;-51
2022/07/29 01:01:28;;;;;;;3.80;1.27;;;;;;;19.93;71.11;100421.41;8335578;28;20044;-49
2022/07/29 01:05:29;;;;;;;2.22;1.30;;;;;;;19.79;71.36;100413.31;8329739;28;20071;-51
2022/07/29 01:09:33;;;;;;;8.93;1.65;;;;;;;19.60;74.00;100419.53;8329608;28;20384;-50
2022/07/29 01:13:34;;;;;;;7.47;1.77;;;;;;;19.39;74.48;100412.19;8335310;28;20029;-50
2022/07/29 01:17:45;;;;;;;5.28;1.60;;;;;;;19.37;76.17;100412.38;8359773;28;20083;-50
2022/07/29 01:21:57;;;;;;;6.88;2.28;;;;;;;19.06;78.67;100414.63;8361206;28;20044;-52
2022/07/29 01:26:29;;;;;;;4.55;1.90;;;;;;;18.67;83.40;100405.22;8360500;28;20045;-49
2022/07/29 01:30:32;;;;;;;7.35;1.85;;;;;;;18.39;85.22;100405.09;8355896;28;20040;-53
2022/07/29 01:34:55;;;;;;;6.65;1.98;;;;;;;18.41;84.08;100402.16;8329336;28;20033;-49
2022/07/29 01:39:04;;;;;;;9.15;2.20;;;;;;;18.69;81.95;100405.84;8328972;28;20033;-49
2022/07/29 01:43:11;;;;;;;9.00;1.90;;;;;;;18.73;80.60;100407.16;8327388;28;20560;-49
2022/07/29 01:47:17;;;;;;;13.75;2.25;;;;;;;18.79;80.01;100417.34;8327623;28;20041;-50
2022/07/29 01:51:20;;;;;;;5.10;1.92;;;;;;;18.62;79.93;100419.47;8329409;28;20045;-49
2022/07/29 01:55:24;;;;;;;11.40;2.30;;;;;;;18.62;79.67;100418.63;8349670;28;20044;-48
2022/07/29 01:59:25;;;;;;;8.15;2.33;;;;;;;18.47;79.97;100405.00;8341624;28;20049;-50
2022/07/29 02:03:28;;;;;;;5.10;1.90;;;;;;;18.42;80.28;100403.88;8328980;28;20094;-50
2022/07/29 02:07:31;;;;;;;8.55;2.58;;;;;;;18.51;79.68;100406.28;8327988;28;20098;-49
2022/07/29 02:11:34;;;;;;;10.15;2.03;;;;;;;18.54;79.36;100405.91;8327654;28;20605;-53
2022/07/29 02:15:35;;;;;;;7.28;2.63;;;;;;;18.36;80.93;100412.84;8348459;28;20105;-51
2022/07/29 02:19:38;;;;;;;7.28;2.05;;;;;;;18.17;82.46;100418.94;8350394;28;20033;-51
2022/07/29 02:23:39;;;;;;;8.05;2.03;;;;;;;18.09;83.17;100419.88;8336845;28;20440;-48
2022/07/29 02:27:42;;;;;;;8.43;2.45;;;;;;;18.54;79.49;100405.91;8357726;28;20285;-48
2022/07/29 02:31:44;;;;;;;8.85;1.95;;;;;;;18.94;76.30;100407.97;8334968;28;20060;-49
2022/07/29 02:35:46;;;;;;;12.55;2.00;;;;;;;19.11;74.88;100409.41;8327505;28;20542;-52
2022/07/29 02:39:49;;;;;;;8.35;1.92;;;;;;;19.00;75.52;100423.63;8327297;28;20504;-48
2022/07/29 02:43:55;;;;;;;8.88;1.52;;;;;;;18.96;74.77;100419.59;8341477;28;20037;-51
2022/07/29 02:47:59;;;;;;;8.15;1.65;;;;;;;19.20;72.53;100410.97;8340650;28;20094;-49
2022/07/29 02:52:12;;;;;;;5.50;1.77;;;;;;;19.26;71.92;100417.53;8331919;28;20401;-52
2022/07/29 02:56:16;;;;;;;13.05;2.72;;;;;;;19.23;71.95;100418.78;8358096;28;20041;-49
2022/07/29 03:00:17;;;;;;;10.45;1.88;;;;;;;19.25;71.68;100416.69;8347541;28;20033;-49
2022/07/29 03:04:20;;;;;;;11.75;1.60;;;;;;;19.22;71.76;100416.25;8325374;28;20044;-48
2022/07/29 03:08:22;;;;;;;8.25;1.60;;;;;;;19.23;71.74;100424.28;8334271;28;20094;-50
2022/07/29 03:12:23;;;;;;;11.20;1.65;;;;;;;19.24;71.67;100414.13;8343623;28;20043;-49
2022/07/29 03:16:25;;;;;;;10.77;2.20;;;;;;;19.15;71.89;100412.59;8367670;28;20040;-49
2022/07/29 03:20:26;;;;;;;6.43;1.80;;;;;;;19.17;71.53;100414.09;8357325;28;20036;-49
2022/07/29 03:24:28;;;;;;;5.28;1.80;;;;;;;19.21;71.37;100420.88;8343430;28;20040;-49
2022/07/29 03:28:29;;;;;;;6.55;1.80;;;;;;;19.22;71.13;100422.56;8356527;28;20112;-49
2022/07/29 03:32:29;;;;;;;8.25;1.95;;;;;;;19.28;70.98;100423.72;8327799;28;20040;-48
2022/07/29 03:36:30;;;;;;;8.98;1.88;;;;;;;19.24;71.19;100434.19;8326065;28;20068;-48
2022/07/29 03:40:37;;;;;;;6.15;1.65;;;;;;;19.12;72.83;100430.28;8325125;28;20410;-48
2022/07/29 03:44:41;;;;;;;10.30;2.08;;;;;;;18.81;76.20;100429.78;8324967;28;20045;-48
2022/07/29 03:48:46;;;;;;;8.05;2.15;;;;;;;18.61;78.46;100434.22;8353733;28;20036;-49
2022/07/29 03:52:47;;;;;;;7.95;2.20;;;;;;;18.43;79.83;100425.59;8356550;28;20056;-50
2022/07/29 03:56:50;;;;;;;6.43;2.50;;;;;;;18.29;80.04;100412.75;8356694;28;20099;-49
2022/07/29 04:00:50;;;;;;;7.32;1.92;;;;;;;18.24;79.81;100414.38;8344756;28;20040;-49
2022/07/29 04:04:52;;;;;;;10.73;2.50;;;;;;;18.24;80.69;100426.16;8330149;28;20044;-48
2022/07/29 04:08:52;;;;;;;6.65;2.38;;;;;;;18.27;80.90;100425.75;8334551;28;20406;-49
2022/07/29 04:12:53;;;;;;;9.02;3.30;;;;;;;18.27;80.69;100423.03;8326181;28;20033;-49
2022/07/29 04:16:53;;;;;;;11.30;2.83;;;;;;;18.24;81.29;100426.16;8357137;28;20033;-50
2022/07/29 04:20:53;;;;;;;8.23;2.50;;;;;;;18.37;79.58;100431.84;8356579;28;20394;-50
2022/07/29 04:24:54;;;;;;;7.13;2.47;;;;;;;18.36;80.46;100438.31;8356863;28;20371;-51
2022/07/29 04:28:54;;;;;;;13.35;3.55;;;;;;;18.33;80.89;100446.91;8349590;28;20033;-49
2022/07/29 04:32:55;;;;;;;14.43;4.38;;;;;;;18.26;81.42;100451.44;8342730;28;20037;-49
2022/07/29 04:36:55;;;;;;;11.75;4.05;;;;;;;18.27;81.99;100452.31;8353131;28;20041;-50
2022/07/29 04:40:56;;;;;;;13.95;4.10;;;;;;;18.17;81.97;100458.06;8348977;28;20041;-48
2022/07/29 04:44:56;;;;;;;10.38;3.03;;;;;;;18.17;82.33;100452.59;8348820;28;20049;-50
2022/07/29 04:48:57;;;;;;;11.27;3.80;;;;;;;18.14;82.80;100452.97;8360737;28;20040;-49
2022/07/29 04:52:57;;;;;;;11.15;2.90;;;;;;;18.19;81.49;100472.41;8354423;28;20045;-52
2022/07/29 04:56:58;;;;;;;6.95;3.05;;;;;;;18.26;81.96;100473.34;8340934;28;20044;-49
2022/07/29 05:00:58;;;;;;;14.23;3.97;;;;;;;18.34;82.05;100472.41;8341030;28;20100;-49
2022/07/29 05:04:59;;;;;;;8.93;3.00;;;;;;;18.27;81.29;100458.59;8330503;28;20044;-49
2022/07/29 05:08:59;;;;;;;6.03;1.90;;;;;;;18.32;81.11;100467.09;8331068;28;20049;-49
2022/07/29 05:13:00;;;;;;;6.70;2.40;;;;;;;18.25;81.24;100487.22;8331620;28;20559;-49
2022/07/29 05:17:00;;;;;;;9.02;2.00;;;;;;;18.31;81.26;100498.28;8362327;28;20041;-49
2022/07/29 05:21:00;;;;;;;10.35;2.50;;;;;;;18.42;81.84;100500.53;8354940;28;20045;-49
2022/07/29 05:25:02;;;;;;;9.48;2.38;;;;;;;18.43;81.44;100490.44;8351565;28;20422;-49
2022/07/29 05:29:02;;;;;;;5.45;2.28;;;;;;;18.51;82.05;100513.06;8345532;28;20045;-49
2022/07/29 05:33:02;;;;;;;7.15;2.28;;;;;;;18.54;81.80;100523.66;8345362;28;20056;-49
2022/07/29 05:37:03;;;;;;;7.95;2.97;;;;;;;18.48;81.61;100542.75;8339515;28;20041;-50
2022/07/29 05:41:05;;;;;;;14.95;4.60;;;;;;;18.63;81.72;100552.63;8342235;28;20045;-49
2022/07/29 05:45:05;;;;;;;8.35;3.83;;;;;;;18.56;81.94;100554.44;8331436;28;20052;-49
2022/07/29 05:49:07;;;;;;;8.90;3.53;;;;;;;18.59;81.69;100562.28;8327477;28;20038;-49
2022/07/29 05:53:07;;;;;;;12.68;3.42;;;;;;;18.62;80.82;100534.50;8334549;28;20041;-50
2022/07/29 05:57:08;;;;;;;8.20;3.10;;;;;;;18.66;80.67;100535.81;8360756;28;20498;-49
2022/07/29 06:01:08;;;;;;;10.98;3.38;;;;;;;18.62;80.56;100539.97;8338691;28;20041;-50
2022/07/29 06:05:09;;;;;;;18.90;4.10;;;;;;;18.71;80.47;100541.56;8328497;28;20053;-49
2022/07/29 06:09:09;;;;;;;17.02;3.67;;;;;;;18.73;82.28;100553.16;8329296;28;20842;-49
2022/07/29 06:13:10;;;;;;;10.93;3.25;;;;;;;18.51;85.12;100545.94;8331525;28;20049;-49
2022/07/29 06:17:11;;;;;;;14.63;3.90;;;;;;;18.15;89.79;100536.78;8329031;28;20037;-49
2022/07/29 06:21:11;;;;;;;8.82;3.33;;;;;;;17.92;93.04;100546.97;8352723;28;20033;-49
2022/07/29 06:25:12;;;;;;;12.68;3.88;;;;;;;17.73;95.34;100546.63;8355476;28;20129;-48
2022/07/29 06:29:12;;;;;;;9.35;4.00;;;;;;;17.90;98.96;100539.97;8358565;28;20214;-49
2022/07/29 06:33:18;;;;;;;10.35;3.47;;;;;;;17.78;96.07;100534.09;8352263;28;20619;-49
2022/07/29 06:37:19;;;;;;;17.58;3.78;;;;;;;17.57;99.77;100532.06;8346191;28;20393;-49
2022/07/29 06:41:19;;;;;;;12.77;4.43;;;;;;;17.55;98.53;100534.16;8378555;28;20025;-50
2022/07/29 06:45:20;;;;;;;12.50;4.97;;;;;;;17.56;99.00;100518.59;8345585;28;20041;-53
2022/07/29 06:49:20;;;;;;;11.60;5.28;;;;;;;17.60;96.98;100509.00;8353630;28;20037;-49
2022/07/29 06:53:21;;;;;;;14.90;4.70;;;;;;;17.66;96.93;100508.25;8356125;28;20099;-49
2022/07/29 06:57:21;;;;;;;17.67;4.70;;;;;;;17.73;96.78;100519.28;8358165;28;20036;-52
2022/07/29 07:01:22;;;;;;;12.90;4.18;;;;;;;17.99;97.63;100536.94;8335670;28;20037;-51
2022/07/29 07:05:22;;;;;;;10.15;4.47;;;;;;;18.34;97.60;100549.03;8342720;28;20829;-49
2022/07/29 07:09:23;;;;;;;8.80;4.40;;;;;;;18.48;99.22;100557.28;8339156;28;20037;-49
2022/07/29 07:13:23;;;;;;;14.25;5.50;;;;;;;18.47;98.62;100566.53;8334381;28;20117;-49
2022/07/29 07:17:24;;;;;;;8.80;5.25;;;;;;;18.51;100.00;100575.22;8357626;28;20025;-53
2022/07/29 07:21:24;;;;;;;17.80;5.57;;;;;;;18.47;100.00;100582.97;8358700;28;20083;-50
2022/07/29 07:25:25;;;;;;;11.95;5.43;;;;;;;18.14;100.00;100587.06;8345731;28;20049;-50
2022/07/29 07:29:25;;;;;;;15.60;5.30;;;;;;;17.61;100.00;100570.84;8337624;28;20045;-50
2022/07/29 07:33:26;;;;;;;17.40;6.20;;;;;;;17.47;100.00;100585.31;8334243;28;20545;-52
2022/07/29 07:37:26;;;;;;;12.80;5.35;;;;;;;17.34;100.00;100563.19;8328819;28;20291;-50
2022/07/29 07:41:27;;;;;;;12.32;6.10;;;;;;;17.39;100.00;100566.22;8324996;28;20041;-49
2022/07/29 07:45:49;;;;;;;10.95;6.07;;;;;;;17.52;100.00;100561.00;8324410;28;20446;-49
2022/07/29 07:49:50;;;;;;;10.02;6.10;;;;;;;17.69;100.00;100545.31;8331730;28;20029;-49
2022/07/29 07:53:51;;;;;;;13.15;5.30;;;;;;;17.86;100.00;100541.38;8343832;28;20041;-49
2022/07/29 07:57:51;;;;;;;16.25;6.60;;;;;;;18.03;100.00;100538.28;8353162;28;20486;-48
2022/07/29 08:01:52;;;;;;;14.73;6.82;;;;;;;18.15;100.00;100545.00;8337334;28;20049;-48
2022/07/29 08:05:54;;;;;;;12.40;6.13;;;;;;;18.10;100.00;100539.22;8351764;28;20044;-48
2022/07/29 08:09:54;;;;;;;9.25;6.65;;;;;;;18.19;100.00;100540.84;8348648;28;20559;-50
2022/07/29 08:13:54;;;;;;;11.63;7.10;;;;;;;18.25;100.00;100537.34;8359663;28;20366;-48
2022/07/29 08:17:55;;;;;;;12.45;6.15;;;;;;;18.30;100.00;100551.28;8353072;28;20052;-48
2022/07/29 08:21:55;;;;;;;14.00;6.22;;;;;;;18.57;100.00;100552.56;8357707;28;20476;-50
2022/07/29 08:25:55;;;;;;;16.00;6.55;;;;;;;18.84;100.00;100560.91;8355268;28;20079;-50
2022/07/29 08:29:57;;;;;;;11.13;5.73;;;;;;;19.27;99.26;100562.69;8348560;28;20037;-53
2022/07/29 08:33:59;;;;;;;13.20;4.70;;;;;;;19.54;95.42;100568.44;8341820;28;20421;-49
2022/07/29 08:37:59;;;;;;;16.55;4.78;;;;;;;20.01;91.64;100572.22;8335662;28;20060;-51
2022/07/29 08:42:00;;;;;;;10.32;4.18;;;;;;;20.25;87.55;100573.66;8336408;28;20056;-53
2022/07/29 08:46:01;;;;;;;10.30;4.40;;;;;;;20.62;86.80;100570.50;8340621;28;20045;-49
2022/07/29 08:50:01;;;;;;;8.32;4.32;;;;;;;20.97;83.67;100572.16;8345612;28;20411;-49
2022/07/29 08:54:02;;;;;;;14.52;4.95;;;;;;;21.48;81.21;100572.47;8342177;28;20048;-50
2022/07/29 08:58:05;;;;;;;11.25;4.38;;;;;;;22.33;78.35;100568.69;8338107;28;20071;-53
2022/07/29 09:02:15;;;;;;;8.20;2.97;;;;;;;22.19;72.63;100567.00;8331122;28;20077;-50
2022/07/29 09:06:20;;;;;;;10.38;3.20;;;;;;;22.54;73.29;100564.84;8338522;28;20083;-53
2022/07/29 09:10:21;;;;;;;7.32;2.92;;;;;;;22.77;72.38;100559.66;8331486;28;20029;-52
2022/07/29 09:14:21;;;;;;;9.90;2.85;;;;;;;23.20;69.59;100561.56;8343084;28;20090;-50
2022/07/29 09:18:51;;;;;;;7.38;2.67;;;;;;;22.96;70.20;100566.97;8335353;28;20569;-49
2022/07/29 09:22:53;;;;;;;6.25;2.78;;;;;;;22.67;70.59;100560.13;8337118;28;20041;-51
2022/07/29 09:26:53;;;;;;;6.05;2.70;;;;;;;23.01;70.80;100559.75;8334278;28;20045;-51
2022/07/29 09:30:57;;;;;;;6.78;3.03;;;;;;;22.99;70.69;100559.13;8341277;28;20055;-52
2022/07/29 09:35:16;;;;;;;6.93;2.95;;;;;;;22.84;73.31;100561.31;8334357;28;20045;-51
2022/07/29 09:39:31;;;;;;;7.10;2.63;;;;;;;22.79;73.54;100563.91;8340945;28;20383;-49
2022/07/29 09:43:31;;;;;;;8.75;3.47;;;;;;;22.83;73.04;100565.16;8329358;28;20045;-51
2022/07/29 09:47:48;;;;;;;8.45;3.55;;;;;;;22.65;71.85;100570.53;8330458;28;20486;-52
2022/07/29 09:52:11;;;;;;;7.93;3.63;;;;;;;23.18;70.14;100562.84;8339682;28;20498;-53
2022/07/29 09:56:14;;;;;;;7.47;3.28;;;;;;;23.54;69.38;100576.84;8340546;28;20033;-53
2022/07/29 10:00:17;;;;;;;6.15;3.58;;;;;;;23.46;68.00;100577.16;8331828;28;20044;-53
2022/07/29 10:04:18;;;;;;;12.30;3.22;;;;;;;24.81;70.25;100567.81;8331395;28;20045;-50
2022/07/29 10:08:26;;;;;;;8.85;3.45;;;;;;;26.33;64.50;100563.38;8345296;28;20041;-51
2022/07/29 10:12:26;;;;;;;8.65;3.30;;;;;;;28.62;60.63;100575.59;8333330;28;20038;-51
2022/07/29 10:16:32;;;;;;;11.93;3.58;;;;;;;28.16;59.02;100576.81;8337448;28;20121;-49
2022/07/29 10:20:33;;;;;;;10.80;3.78;;;;;;;27.98;58.37;100584.56;8334158;28;20034;-52
2022/07/29 10:24:34;;;;;;;6.53;3.50;;;;;;;27.80;57.59;100576.44;8344317;28;20573;-50
2022/07/29 10:28:34;;;;;;;9.50;3.20;;;;;;;27.69;58.18;100574.59;8339778;28;20048;-51
2022/07/29 10:32:55;;;;;;;8.63;2.92;;;;;;;28.81;55.25;100574.19;8327969;28;20462;-51
2022/07/29 10:37:14;;;;;;;9.13;3.40;;;;;;;29.47;56.88;100565.56;8329303;28;20025;-50
2022/07/29 10:41:48;;;;;;;10.52;2.85;;;;;;;28.84;54.63;100562.53;8332297;28;20401;-52
2022/07/29 10:45:54;;;;;;;8.98;2.30;;;;;;;29.16;54.32;100566.31;8335582;28;20479;-49
2022/07/29 10:50:00;;;;;;;7.50;2.53;;;;;;;30.08;52.37;100565.03;8330403;28;20034;-52
2022/07/29 10:54:04;;;;;;;5.95;2.83;;;;;;;29.23;52.25;100566.94;8339699;28;20075;-50
2022/07/29 10:58:23;;;;;;;5.05;2.30;;;;;;;29.49;51.11;100560.53;8352228;28;20493;-50
2022/07/29 11:02:43;;;;;;;8.45;2.40;;;;;;;28.75;51.85;100557.69;8329504;28;20505;-50
2022/07/29 11:11:25;;;;;;;5.32;2.50;;;;;;;28.70;51.93;100561.25;8341490;27;20903;-50
2022/07/29 11:15:25;;;;;;;3.70;2.35;;;;;;;28.96;50.92;100554.03;8336086;28;20040;-51
2022/07/29 11:19:26;;;;;;;7.40;2.40;;;;;;;28.85;50.10;100549.47;8322997;28;20460;-50
2022/07/29 11:23:31;;;;;;;4.90;2.15;;;;;;;28.98;51.74;100552.69;8328611;28;20065;-50
2022/07/29 11:27:39;;;;;;;4.07;2.70;;;;;;;28.54;51.54;100567.66;8323406;28;20033;-49
2022/07/29 11:31:43;;;;;;;12.63;2.42;;;;;;;28.74;51.07;100548.47;8324018;28;20607;-53
2022/07/29 11:36:12;;;;;;;5.90;2.40;;;;;;;28.80;49.57;100554.94;8324305;28;20047;-52
2022/07/29 11:40:15;;;;;;;8.77;2.30;;;;;;;28.61;48.96;100562.78;8325188;28;20029;-49
2022/07/29 11:44:15;;;;;;;12.88;2.60;;;;;;;29.08;47.98;100561.19;8326363;28;20034;-50
2022/07/29 11:48:17;;;;;;;6.40;1.92;;;;;;;30.08;48.18;100556.66;8325924;28;20044;-52
2022/07/29 11:52:19;;;;;;;4.65;1.65;;;;;;;30.86;45.83;100543.81;8326252;28;20025;-52
2022/07/29 11:56:21;;;;;;;6.22;1.70;;;;;;;29.25;47.53;100548.03;8334648;28;20387;-52
2022/07/29 12:00:29;;;;;;;4.65;1.70;;;;;;;28.37;49.48;100558.50;8327017;28;20401;-49
2022/07/29 12:04:29;;;;;;;3.83;1.42;;;;;;;29.26;49.48;100544.13;8319615;28;20038;-49
2022/07/29 12:08:30;;;;;;;5.90;2.00;;;;;;;29.13;48.18;100550.13;8321041;28;20049;-49
2022/07/29 12:12:30;;;;;;;4.75;1.77;;;;;;;28.28;49.06;100557.25;8321872;28;20095;-52
2022/07/29 12:16:35;;;;;;;8.95;1.92;;;;;;;27.52;51.20;100562.59;8327172;28;20041;-52
2022/07/29 12:20:36;;;;;;;3.38;1.77;;;;;;;26.89;51.48;100559.09;8312406;28;20497;-52
2022/07/29 12:24:45;;;;;;;4.10;1.95;;;;;;;26.34;52.03;100550.31;8313111;28;20414;-50
2022/07/29 12:28:46;;;;;;;5.35;2.60;;;;;;;26.60;53.24;100542.31;8303976;28;20088;-51
2022/07/29 12:32:47;;;;;;;6.50;2.20;;;;;;;26.88;52.46;100546.28;8301365;28;20069;-50
2022/07/29 12:36:49;;;;;;;7.75;2.65;;;;;;;26.69;52.50;100540.06;8302374;28;20041;-48
2022/07/29 12:40:51;;;;;;;8.73;3.25;;;;;;;26.41;53.19;100537.19;8303287;28;20128;-49
2022/07/29 12:44:52;;;;;;;8.52;3.97;;;;;;;26.35;53.43;100544.53;8309888;28;20469;-49
2022/07/29 12:48:54;;;;;;;9.20;3.40;;;;;;;26.83;52.82;100547.88;8302544;28;20636;-49
2022/07/29 12:53:08;;;;;;;6.22;3.42;;;;;;;27.00;54.13;100538.75;8295113;28;20099;-49
2022/07/29 12:57:09;;;;;;;6.13;3.30;;;;;;;27.05;55.04;100538.88;8297498;28;20060;-50
2022/07/29 13:01:15;;;;;;;10.67;3.27;;;;;;;27.42;53.68;100538.25;8305544;28;20420;-49
2022/07/29 13:05:16;;;;;;;11.23;4.15;;;;;;;26.67;54.36;100532.00;8295296;28;20771;-53
2022/07/29 13:09:22;;;;;;;6.22;3.65;;;;;;;26.43;54.90;100518.38;8297407;28;20398;-50
2022/07/29 13:13:22;;;;;;;11.02;3.83;;;;;;;26.75;54.31;100528.81;8296639;28;20508;-52
2022/07/29 13:17:23;;;;;;;7.20;3.47;;;;;;;26.74;54.31;100532.69;8308947;28;20378;-50
2022/07/29 13:21:23;;;;;;;9.07;3.95;;;;;;;26.81;53.49;100530.63;8299412;28;20584;-50
2022/07/29 13:25:27;;;;;;;6.07;3.37;;;;;;;26.85;53.83;100528.19;8304504;28;20076;-49
2022/07/29 13:29:27;;;;;;;;;;;;;;;26.87;53.83;100533.50;8299871;28;20265;-50
2022/07/29 13:33:28;;;;;;;14.47;3.93;;;;;;;26.74;55.38;100526.28;8309605;28;20007;-52
2022/07/29 13:37:29;;;;;;;9.30;4.00;;;;;;;26.83;55.23;100524.81;8298658;28;20106;-52
2022/07/29 13:41:29;;;;;;;8.25;4.10;;;;;;;26.52;54.78;100520.53;8295522;28;20131;-49
2022/07/29 13:45:30;;;;;;;8.80;5.07;;;;;;;26.63;54.84;100525.22;8295300;28;20038;-51
2022/07/29 13:49:30;;;;;;;8.65;3.50;;;;;;;26.77;55.78;100521.09;8296611;28;20441;-52
2022/07/29 13:53:31;;;;;;;7.60;2.88;;;;;;;26.98;54.92;100532.63;8300080;28;20030;-51
2022/07/29 13:57:31;;;;;;;11.50;3.33;;;;;;;27.06;54.92;100535.00;8301351;28;20037;-50
2022/07/29 14:01:32;;;;;;;7.68;2.20;;;;;;;27.15;53.65;100527.97;8297489;28;20421;-52
2022/07/29 14:05:32;;;;;;;9.10;2.93;;;;;;;26.80;54.18;100528.09;8297926;28;20045;-51
2022/07/29 14:09:33;;;;;;;7.68;2.10;;;;;;;26.71;54.82;100515.69;8299058;28;20344;-52
2022/07/29 14:13:33;;;;;;;7.57;2.50;;;;;;;27.01;54.32;100521.03;8317117;28;20045;-50
2022/07/29 14:17:34;;;;;;;5.28;2.50;;;;;;;26.84;53.32;100519.03;8301627;28;20033;-49
2022/07/29 14:21:34;;;;;;;4.07;2.55;;;;;;;26.96;52.78;100523.69;8301823;28;20033;-50
2022/07/29 14:25:35;;;;;;;7.32;1.98;;;;;;;26.88;51.91;100526.84;8305956;28;20417;-49
2022/07/29 14:29:35;;;;;;;5.18;2.38;;;;;;;26.60;53.08;100525.69;8297390;28;20038;-51
2022/07/29 14:33:48;;;;;;;8.82;2.35;;;;;;;26.55;52.62;100528.38;8293392;28;20042;-50
2022/07/29 14:37:49;;;;;;;4.07;2.15;;;;;;;26.77;53.52;100532.19;8295426;28;20037;-49
2022/07/29 14:41:50;;;;;;;4.78;2.38;;;;;;;26.84;54.38;100526.53;8295954;28;20026;-50
2022/07/29 14:45:51;;;;;;;6.65;2.60;;;;;;;26.78;54.13;100527.50;8295078;28;20627;-51
2022/07/29 14:49:51;;;;;;;3.92;1.85;;;;;;;26.80;54.12;100525.31;8297465;28;20062;-50
2022/07/29 14:53:52;;;;;;;6.72;1.73;;;;;;;27.17;53.58;100531.34;8299144;28;20030;-49
2022/07/29 14:57:53;;;;;;;6.47;1.85;;;;;;;26.89;53.41;100534.13;8304556;28;20132;-52
2022/07/29 15:01:54;;;;;;;6.28;1.83;;;;;;;26.78;52.01;100544.97;8298046;28;20113;-51
2022/07/29 15:05:55;;;;;;;3.25;1.85;;;;;;;26.70;52.22;100544.53;8298421;28;20112;-49
2022/07/29 15:09:55;;;;;;;4.55;1.60;;;;;;;26.59;52.15;100546.19;8299869;28;20045;-49
2022/07/29 15:13:55;;;;;;;8.90;1.73;;;;;;;26.38;52.87;100549.59;8296130;28;20429;-49
2022/07/29 15:17:56;;;;;;;8.85;1.88;;;;;;;26.37;52.63;100547.91;8291773;28;20275;-53
2022/07/29 15:21:56;;;;;;;6.57;1.80;;;;;;;26.58;52.15;100538.13;8304866;28;20041;-49
2022/07/29 15:25:57;;;;;;;5.72;1.60;;;;;;;26.85;51.53;100555.94;8301481;28;20528;-53
2022/07/29 15:29:57;;;;;;;2.42;1.52;;;;;;;26.62;50.76;100542.13;8317309;28;20334;-53
2022/07/29 15:33:57;;;;;;;3.67;1.67;;;;;;;26.45;51.31;100555.88;8313523;28;20041;-50
2022/07/29 15:37:58;;;;;;;4.05;1.80;;;;;;;26.24;51.04;100553.72;8313372;28;20034;-49
2022/07/29 15:41:59;;;;;;;3.78;1.40;;;;;;;26.11;51.74;100553.97;8316169;28;20501;-51
2022/07/29 15:47:04;;;;;;;5.32;2.15;;;;;;;26.13;51.57;100551.78;8311419;28;20079;-52
2022/07/29 15:50:20;;;;;;;1.67;1.25;;;;;;;26.27;51.96;100553.25;8303923;28;20199;-48
2022/07/29 15:54:21;;;;;;;4.57;1.50;;;;;;;26.15;51.94;100555.16;8302257;28;20104;-50
2022/07/29 15:58:21;;;;;;;2.58;1.58;;;;;;;26.25;51.83;100560.94;8304520;28;20088;-50
2022/07/29 16:02:22;;;;;;;4.75;1.60;;;;;;;26.31;51.65;100554.44;8300826;28;20045;-54
2022/07/29 16:06:22;;;;;;;4.38;1.38;;;;;;;26.38;51.01;100548.78;8293168;28;20067;-51
2022/07/29 16:10:23;;;;;;;6.55;1.50;;;;;;;26.29;51.84;100551.06;8302402;28;20045;-49
2022/07/29 16:14:24;;;;;;;5.03;1.40;;;;;;;26.46;51.14;100552.00;8304955;28;20395;-48
2022/07/29 16:18:24;;;;;;;3.63;1.75;;;;;;;26.39;50.77;100545.75;8313568;28;20272;-52
2022/07/29 16:22:24;;;;;;;5.10;1.98;;;;;;;26.39;51.61;100545.75;8314509;28;20545;-49
2022/07/29 16:26:25;;;;;;;3.45;1.60;;;;;;;26.44;51.78;100540.31;8313044;28;20465;-49
2022/07/29 16:30:25;;;;;;;3.88;1.30;;;;;;;26.49;52.42;100528.50;8310739;28;20068;-49
2022/07/29 16:34:26;;;;;;;4.28;1.40;;;;;;;26.34;52.39;100537.31;8301823;28;20084;-49
2022/07/29 16:38:26;;;;;;;2.97;1.53;;;;;;;26.35;52.24;100533.44;8299267;28;20576;-51
2022/07/29 16:42:26;;;;;;;4.43;1.40;;;;;;;26.41;53.04;100532.47;8309889;28;20303;-48
2022/07/29 16:46:27;;;;;;;6.35;1.70;;;;;;;26.25;53.24;100541.53;8303793;28;20141;-53
2022/07/29 16:50:28;;;;;;;5.17;2.00;;;;;;;26.26;53.95;100534.91;8314730;28;20041;-48
2022/07/29 16:54:29;;;;;;;5.57;2.00;;;;;;;26.28;54.32;100534.66;8311783;28;20268;-51
2022/07/29 16:58:29;;;;;;;2.92;1.50;;;;;;;26.29;55.05;100545.50;8311706;28;20110;-50
2022/07/29 17:02:29;;;;;;;5.28;1.52;;;;;;;26.33;55.20;100540.34;8298264;28;20072;-50
2022/07/29 17:06:31;;;;;;;3.40;1.53;;;;;;;26.36;55.70;100537.94;8296883;28;20061;-51
2022/07/29 17:10:31;;;;;;;5.10;2.10;;;;;;;26.30;56.63;100552.75;8297593;28;20292;-50
2022/07/29 17:14:32;;;;;;;10.93;2.47;;;;;;;26.19;57.01;100556.38;8303832;28;20052;-52
2022/07/29 17:18:32;;;;;;;2.77;1.87;;;;;;;26.05;57.68;100549.41;8299268;28;20304;-49
2022/07/29 17:22:33;;;;;;;4.80;2.50;;;;;;;26.11;58.08;100558.66;8297171;28;20367;-52
2022/07/29 17:26:33;;;;;;;5.20;2.78;;;;;;;26.16;58.09;100556.84;8302013;28;20409;-53
2022/07/29 17:30:33;;;;;;;4.05;2.08;;;;;;;26.14;58.75;100559.00;8298961;28;20567;-52
2022/07/29 17:34:36;;;;;;;4.20;2.38;;;;;;;25.96;58.87;100561.88;8288050;28;20695;-52
2022/07/29 17:38:36;;;;;;;3.28;2.35;;;;;;;25.94;59.11;100557.63;8290188;28;20045;-50
2022/07/29 17:42:37;;;;;;;6.60;2.42;;;;;;;25.91;59.27;100564.50;8289753;28;20522;-51
2022/07/29 17:46:37;;;;;;;4.78;1.95;;;;;;;25.77;59.31;100573.28;8289996;28;20041;-49
2022/07/29 17:50:37;;;;;;;2.67;2.00;;;;;;;25.77;59.06;100574.13;8289849;28;20050;-52
2022/07/29 17:54:38;;;;;;;3.70;1.85;;;;;;;25.69;59.24;100571.72;8303800;28;20182;-49
2022/07/29 17:58:38;;;;;;;4.07;2.05;;;;;;;25.72;59.67;100576.78;8299266;28;20124;-51
2022/07/29 18:02:39;;;;;;;4.95;1.98;;;;;;;25.67;59.72;100579.41;8294668;28;20418;-51
2022/07/29 18:06:39;;;;;;;6.85;2.47;;;;;;;25.62;60.10;100575.66;8289538;28;20069;-50
2022/07/29 18:10:40;;;;;;;5.03;2.35;;;;;;;25.55;60.62;100580.47;8302340;28;20472;-50
2022/07/29 18:14:40;;;;;;;5.25;2.45;;;;;;;25.55;61.11;100592.38;8312840;28;20467;-49
2022/07/29 18:18:44;;;;;;;3.93;2.47;;;;;;;25.47;61.16;100589.94;8302746;28;20042;-49
2022/07/29 18:22:44;;;;;;;2.65;2.17;;;;;;;25.43;61.34;100594.25;8307040;28;20326;-49
2022/07/29 18:26:45;;;;;;;3.30;2.33;;;;;;;25.36;61.48;100590.75;8291237;28;20053;-52
2022/07/29 18:30:46;;;;;;;5.00;2.00;;;;;;;25.25;61.62;100594.25;8290598;28;20037;-49
2022/07/29 18:34:47;;;;;;;6.60;2.25;;;;;;;25.12;62.50;100602.75;8294690;28;20749;-49
2022/07/29 18:38:48;;;;;;;6.00;2.00;;;;;;;25.01;62.65;100600.78;8287762;28;20045;-51
2022/07/29 18:42:48;;;;;;;9.23;3.08;;;;;;;24.89;63.16;100605.41;8298199;28;20104;-50
2022/07/29 18:46:50;;;;;;;4.25;3.00;;;;;;;24.78;63.38;100595.09;8302896;28;20050;-49